Aktualne dane pomiarowe

Uwaga, wersja testowa! Automatyczne pobieranie danych za pomocą narzędzi lub skryptów to umożliwiających jest zabronione.

Dane meteo z obszaru Polski uzyskane na podstawie depesz SYNOP pobieranych co godzinę z NWS. Najedź myszką na symbol przedstawiony w tabeli, aby uzyskać informacje co do jego znaczenia. Prosimy pamiętać, że to testowa wersja strony, która jeszcze nie jest ukończona. Stworzono również jest krótki FAQ dotyczący korzystania z tej podstrony Anomalie temperatury w chwili obecnej odniesione są do okresu referencyjnego 1951-2016. Okres ten będzie później zmieniony na 1981-2010. Kliknij ikonę aby pobrać plik CSV. Kliknij ikonę aby wygenerować mapę synoptyczną dla danego terminu.

Wybierz Datę:    

        

Lesko (12690)

Dane terminowe dla wybranej stacji. Kliknij datę, aby otrzymać dane z tego terminu dla wszystkich stacji.

TemperaturaZachmurzenieWiatrCiśnienieOpadyPogoda
 Data t td wb tx tn tg rh  Nt Nl Cl Cm Ch ws wd g1 g2 wx mslp ppp ch 24h 12h t ww ww w1 w2  
2019-07-20 23:00:00 19.0 14.9 16.2--- 7730.0wx-wx2wx--21018.8 969.8 0.3---------
2019-07-20 22:00:00 18.6 15.1 16.2--- 8030.0wxwxwxwx2wx--21018.9 969.8 0.6---wx---
2019-07-20 21:00:00 19.1 15.0 16.3--- 7735.0wx-wx1wx---1018.6 969.6 0.7---------
2019-07-20 20:00:00 19.5 15.4 16.7--- 7730.0wxwxwxwx1wx--11018.4 969.5 0.3---------
2019-07-20 19:00:00 19.4 15.5 16.7--- 7830.0wxwxwxwx1wx--11018.1 969.2 0.2---------
2019-07-20 18:00:00 20.5 15.3 17.0 24.9 16.7- 7235.0wxwxwxwx4wx--41017.6 968.9 -0.3--12wx---
2019-07-20 17:00:00 21.4 14.5 16.9--- 6535.0wxwxwxwx4wx--41017.8 969.2 0.1---------
2019-07-20 16:00:00 23.6 14.0 17.5--- 5535.0wxwxwxwx3wx--31017.2 969.0 -0.6---------
2019-07-20 15:00:00 24.3 14.4 18.0--- 5430.0wxwxwxwxwx4wx--41017.3 969.2 -0.8---------
2019-07-20 14:00:00 24.1 15.0 18.2--- 5735.0wxwxwxwxwx2wx--21017.2 969.1 -1.0---------
2019-07-20 13:00:00 23.2 15.3 18.1--- 6135.0wxwxwxwxwx3wx--31017.9 969.6 -0.7---------
2019-07-20 12:00:00 21.2 16.2 17.8--- 7326.0wxwxwxwxwx2wx--21018.7 970.0 0.0- 0.06wx---
2019-07-20 11:00:00 19.5 13.9 15.8--- 7035.0wxwxwx4wx--41019.1 970.1 0.6---wx---
2019-07-20 10:00:00 20.9 14.1 16.5--- 6535.0wxwxwxwx2wx--21019.0 970.3 0.7---wx---
2019-07-20 09:00:00 21.6 12.7 16.0--- 5730.0wx-wxwx3wx--31018.6 970.0 0.8---------
2019-07-20 08:00:00 21.2 15.1 17.2--- 6830.0wx-wxwx1wx--11018.1 969.5 0.6---------
2019-07-20 07:00:00 18.2 15.8 16.5--- 8630.0wxwxwxwxwx1wx--11018.8 969.6 0.9---------
2019-07-20 06:00:00 16.8 13.7 14.7 20.6 14.6 14 8230.0wxwxwx0---01018.6 969.2 0.8 2.0 0.012----- 10.5
2019-07-20 05:00:00 16.0 14.0 14.6--- 8830.0wxwxwxwx0----1018.4 968.9 0.4---------
2019-07-20 04:00:00 15.1 13.3 13.8--- 8926.0wx-wx1wx--11018.4 968.7 0.3---------
2019-07-20 03:00:00 14.7 12.6 13.2--- 8729.0wxwxwxwx1wx--11018.1 968.4 0.1---------
2019-07-20 02:00:00 15.2 13.0 13.7--- 8729.0wxwxwxwx2wx--21018.1 968.5 0.3---------
2019-07-20 01:00:00 14.9 12.8 13.4--- 8730.0wxwxwxwx2wx--21018.1 968.4 0.0---------
2019-07-20 00:00:00 15.0 12.5 13.3--- 8530.0wxwxwxwx2wx--21018.0 968.3 0.2- 0.06------
2019-07-19 23:00:00 15.5 12.6 13.5--- 8330.0wxwxwxwx1wx---1017.8 968.2 0.2---------
2019-07-19 22:00:00 15.8 12.4 13.5--- 8035.0wxwxwxwx2wx--21017.9 968.4 0.6---------
2019-07-19 21:00:00 16.5 11.6 13.3--- 7335.0wxwxwxwx2wx--21017.5 968.1 0.8---------
2019-07-19 20:00:00 18.4 11.0 13.8--- 6235.0wxwxwxwx2wx--21017.0 968.0 0.8---------
2019-07-19 19:00:00 18.8 11.4 14.2--- 6235.0wxwxwxwxwx1wx--11016.8 967.8 1.1---------
2019-07-19 18:00:00 20.6 10.7 14.6 24.8 17.2- 5335.0wxwxwxwx1wx-811015.9 967.3 0.6- 2.012wx-w1--
2019-07-19 17:00:00 21.8 11.2 15.4--- 5135.0wxwxwxwx2wx--21015.6 967.2 0.3---------
2019-07-19 16:00:00 23.0 12.0 16.3--- 5035.0wxwxwxwx3wx--31014.9 966.7 0.0---------
2019-07-19 15:00:00 22.0 15.1 17.5--- 6535.0wxwxwxwx1wx-811015.1 966.7 -0.2---wx-w1--
2019-07-19 14:00:00 19.9 15.3 16.8--- 7535.0wxwxwxwx2wx-821015.6 966.9 -0.2---wx-w1--
2019-07-19 13:00:00 23.6 9.6 15.4--- 4135.0wxwxwx1wx--11014.8 966.7 -0.6---wx---
2019-07-19 12:00:00 24.1 10.0 15.8--- 4135.0wxwxwxwx1wx-711014.9 966.9 -0.4- 0.06------
2019-07-19 11:00:00 24.1 8.5 15.2--- 3735.0wxwxwxwx3wx-731015.1 967.1 -0.3---------
2019-07-19 10:00:00 23.7 9.3 15.3--- 4035.0wxwxwxwx2wx--21015.4 967.3 0.0---------
2019-07-19 09:00:00 22.4 9.9 15.0--- 4535.0wxwxwx3wx--31015.6 967.3 0.0---------
2019-07-19 08:00:00 21.6 12.7 16.0--- 5735.0wxwxwxwx1wx--11015.9 967.4 0.2---------
2019-07-19 07:00:00 19.8 13.0 15.5--- 6535.0wxwxwx1wx--11016.1 967.3 0.2----22----
2019-07-19 06:00:00 17.2 12.5 14.1 19.1 11.9 11 7435.0wx-wx1wx--11016.5 967.3 0.3- 0.012-22--- 10.9
2019-07-19 05:00:00 13.5 10.7 11.6--- 8335.0wxwxwxwx1wx--11017.1 967.2 0.5----22----
2019-07-19 04:00:00 12.5 10.6 11.2--- 8835.0wxwxwxwx1wx--11017.1 967.1 0.3----22----
2019-07-19 03:00:00 11.9 10.1 10.7--- 8930.0wxwxwxwx1wx--11017.1 967.0 0.4----22----
2019-07-19 02:00:00 11.9 10.3 10.8--- 9025.0wxwxwxwx2wx--21016.8 966.7 0.2----22----
2019-07-19 01:00:00 12.5 10.6 11.2--- 8820.0wxwxwxwx2wx--21016.8 966.8 0.5----22----
2019-07-19 00:00:00 13.4 11.1 11.8--- 8625.0wxwxwxwx2wx--21016.5 966.6 0.4- 0.06-22----
1.9 ms

 

Print Friendly, PDF & Email